sensor_id;sensor_type;location;lat;lon;timestamp;pressure;altitude;pressure_sealevel;temperature;humidity
44044;BME280;29709;52.396;16.796;2023-04-22T00:02:43;101753.11;;;11.69;52.36
44044;BME280;29709;52.396;16.796;2023-04-22T00:05:58;101750.37;;;11.69;52.11
44044;BME280;29709;52.396;16.796;2023-04-22T00:09:11;101744.73;;;11.61;52.22
44044;BME280;29709;52.396;16.796;2023-04-22T00:12:24;101738.96;;;11.54;51.97
44044;BME280;29709;52.396;16.796;2023-04-22T00:15:38;101735.12;;;11.47;52.22
44044;BME280;29709;52.396;16.796;2023-04-22T00:18:52;101737.27;;;11.43;52.87
44044;BME280;29709;52.396;16.796;2023-04-22T00:22:05;101738.85;;;11.46;52.55
44044;BME280;29709;52.396;16.796;2023-04-22T00:25:18;101737.43;;;11.42;52.97
44044;BME280;29709;52.396;16.796;2023-04-22T00:28:32;101730.93;;;11.33;52.53
44044;BME280;29709;52.396;16.796;2023-04-22T00:31:45;101734.59;;;11.24;52.37
44044;BME280;29709;52.396;16.796;2023-04-22T00:34:58;101724.35;;;11.16;52.91
44044;BME280;29709;52.396;16.796;2023-04-22T00:38:11;101728.13;;;11.15;53.30
44044;BME280;29709;52.396;16.796;2023-04-22T00:41:26;101732.15;;;11.21;53.49
44044;BME280;29709;52.396;16.796;2023-04-22T00:44:39;101726.80;;;11.19;53.37
44044;BME280;29709;52.396;16.796;2023-04-22T00:47:53;101734.34;;;11.17;53.70
44044;BME280;29709;52.396;16.796;2023-04-22T00:51:06;101734.50;;;11.16;53.65
44044;BME280;29709;52.396;16.796;2023-04-22T00:54:19;101734.92;;;11.11;53.44
44044;BME280;29709;52.396;16.796;2023-04-22T00:57:33;101729.02;;;11.06;53.10
44044;BME280;29709;52.396;16.796;2023-04-22T01:00:47;101730.62;;;10.99;54.29
44044;BME280;29709;52.396;16.796;2023-04-22T01:04:02;101737.45;;;10.95;54.19
44044;BME280;29709;52.396;16.796;2023-04-22T01:07:16;101732.66;;;10.87;54.08
44044;BME280;29709;52.396;16.796;2023-04-22T01:10:30;101738.03;;;10.79;54.20
44044;BME280;29709;52.396;16.796;2023-04-22T01:13:44;101737.63;;;10.64;55.75
44044;BME280;29709;52.396;16.796;2023-04-22T01:16:57;101733.86;;;10.56;55.30
44044;BME280;29709;52.396;16.796;2023-04-22T01:20:11;101731.99;;;10.47;56.14
44044;BME280;29709;52.396;16.796;2023-04-22T01:23:25;101737.47;;;10.27;57.02
44044;BME280;29709;52.396;16.796;2023-04-22T01:26:39;101734.11;;;10.14;56.73
44044;BME280;29709;52.396;16.796;2023-04-22T01:29:52;101733.79;;;9.98;58.47
44044;BME280;29709;52.396;16.796;2023-04-22T01:33:06;101726.38;;;9.89;58.03
44044;BME280;29709;52.396;16.796;2023-04-22T01:36:19;101725.23;;;9.81;58.57
44044;BME280;29709;52.396;16.796;2023-04-22T01:39:32;101734.89;;;9.76;58.06
44044;BME280;29709;52.396;16.796;2023-04-22T01:42:47;101735.59;;;9.68;58.25
44044;BME280;29709;52.396;16.796;2023-04-22T01:46:01;101730.82;;;9.61;58.16
44044;BME280;29709;52.396;16.796;2023-04-22T01:49:15;101729.91;;;9.50;58.93
44044;BME280;29709;52.396;16.796;2023-04-22T01:52:29;101730.05;;;9.49;59.04
44044;BME280;29709;52.396;16.796;2023-04-22T01:55:42;101729.45;;;9.45;59.25
44044;BME280;29709;52.396;16.796;2023-04-22T01:58:56;101721.78;;;9.39;59.17
44044;BME280;29709;52.396;16.796;2023-04-22T02:02:09;101727.95;;;9.32;59.77
44044;BME280;29709;52.396;16.796;2023-04-22T02:05:22;101719.09;;;9.18;60.10
44044;BME280;29709;52.396;16.796;2023-04-22T02:08:35;101720.63;;;9.11;60.06
44044;BME280;29709;52.396;16.796;2023-04-22T02:11:50;101717.02;;;9.11;60.40
44044;BME280;29709;52.396;16.796;2023-04-22T02:15:03;101722.90;;;9.06;59.42
44044;BME280;29709;52.396;16.796;2023-04-22T02:18:18;101718.98;;;8.99;59.65
44044;BME280;29709;52.396;16.796;2023-04-22T02:21:31;101725.00;;;8.93;60.79
44044;BME280;29709;52.396;16.796;2023-04-22T02:24:45;101723.41;;;8.90;62.00
44044;BME280;29709;52.396;16.796;2023-04-22T02:27:58;101719.59;;;8.82;60.59
44044;BME280;29709;52.396;16.796;2023-04-22T02:31:11;101713.05;;;8.73;61.68
44044;BME280;29709;52.396;16.796;2023-04-22T02:34:25;101711.86;;;8.66;59.56
44044;BME280;29709;52.396;16.796;2023-04-22T02:37:38;101707.31;;;8.55;61.87
44044;BME280;29709;52.396;16.796;2023-04-22T02:40:51;101704.44;;;8.57;61.08
44044;BME280;29709;52.396;16.796;2023-04-22T02:44:05;101701.07;;;8.53;60.07
44044;BME280;29709;52.396;16.796;2023-04-22T02:47:20;101702.87;;;8.43;61.80
44044;BME280;29709;52.396;16.796;2023-04-22T02:50:34;101703.73;;;8.44;62.00
44044;BME280;29709;52.396;16.796;2023-04-22T02:53:47;101703.01;;;8.42;62.41
44044;BME280;29709;52.396;16.796;2023-04-22T02:57:00;101697.08;;;8.36;62.17
44044;BME280;29709;52.396;16.796;2023-04-22T03:00:14;101701.83;;;8.34;62.20
44044;BME280;29709;52.396;16.796;2023-04-22T03:03:28;101693.81;;;8.31;62.07
44044;BME280;29709;52.396;16.796;2023-04-22T03:06:41;101697.83;;;8.27;61.03
44044;BME280;29709;52.396;16.796;2023-04-22T03:09:54;101702.34;;;8.17;61.52
44044;BME280;29709;52.396;16.796;2023-04-22T03:13:07;101695.52;;;8.11;62.88
44044;BME280;29709;52.396;16.796;2023-04-22T03:16:22;101690.91;;;8.12;63.03
44044;BME280;29709;52.396;16.796;2023-04-22T03:19:36;101694.27;;;8.16;61.94
44044;BME280;29709;52.396;16.796;2023-04-22T03:22:49;101684.45;;;8.13;62.74
44044;BME280;29709;52.396;16.796;2023-04-22T03:26:02;101688.80;;;8.16;60.41
44044;BME280;29709;52.396;16.796;2023-04-22T03:29:15;101687.93;;;8.15;62.73
44044;BME280;29709;52.396;16.796;2023-04-22T03:32:28;101683.18;;;8.17;62.18
44044;BME280;29709;52.396;16.796;2023-04-22T03:35:41;101687.80;;;8.17;62.63
44044;BME280;29709;52.396;16.796;2023-04-22T03:38:54;101690.04;;;8.11;62.75
44044;BME280;29709;52.396;16.796;2023-04-22T03:42:09;101676.62;;;8.08;62.09
44044;BME280;29709;52.396;16.796;2023-04-22T03:45:22;101681.22;;;8.08;62.78
44044;BME280;29709;52.396;16.796;2023-04-22T03:48:35;101680.35;;;8.07;63.56
44044;BME280;29709;52.396;16.796;2023-04-22T03:51:49;101678.03;;;8.03;62.44
44044;BME280;29709;52.396;16.796;2023-04-22T03:55:02;101680.78;;;7.92;63.54
44044;BME280;29709;52.396;16.796;2023-04-22T03:58:15;101687.87;;;7.94;63.75
44044;BME280;29709;52.396;16.796;2023-04-22T04:01:28;101682.64;;;7.91;63.82
44044;BME280;29709;52.396;16.796;2023-04-22T04:04:41;101680.78;;;7.92;63.82
44044;BME280;29709;52.396;16.796;2023-04-22T04:07:54;101683.00;;;7.98;63.45
44044;BME280;29709;52.396;16.796;2023-04-22T04:11:08;101679.76;;;8.04;63.06
44044;BME280;29709;52.396;16.796;2023-04-22T04:14:23;101675.62;;;8.09;63.08
44044;BME280;29709;52.396;16.796;2023-04-22T04:17:36;101670.95;;;8.21;63.58
44044;BME280;29709;52.396;16.796;2023-04-22T04:20:49;101669.57;;;8.27;63.25
44044;BME280;29709;52.396;16.796;2023-04-22T04:24:09;101669.82;;;8.35;62.92
44044;BME280;29709;52.396;16.796;2023-04-22T04:27:22;101681.09;;;8.42;62.97
44044;BME280;29709;52.396;16.796;2023-04-22T04:30:36;101674.36;;;8.46;61.98
44044;BME280;29709;52.396;16.796;2023-04-22T04:33:49;101675.82;;;8.50;61.56
44044;BME280;29709;52.396;16.796;2023-04-22T04:37:03;101676.41;;;8.53;60.51
44044;BME280;29709;52.396;16.796;2023-04-22T04:40:18;101679.64;;;8.58;61.33
44044;BME280;29709;52.396;16.796;2023-04-22T04:43:33;101676.35;;;8.64;61.13
44044;BME280;29709;52.396;16.796;2023-04-22T04:46:47;101681.45;;;8.69;60.52
44044;BME280;29709;52.396;16.796;2023-04-22T04:50:02;101683.77;;;8.74;60.88
44044;BME280;29709;52.396;16.796;2023-04-22T04:53:16;101685.25;;;8.78;61.25
44044;BME280;29709;52.396;16.796;2023-04-22T04:56:30;101692.52;;;8.88;60.76
44044;BME280;29709;52.396;16.796;2023-04-22T04:59:43;101674.11;;;9.00;61.59
44044;BME280;29709;52.396;16.796;2023-04-22T05:02:56;101682.57;;;9.18;61.60
44044;BME280;29709;52.396;16.796;2023-04-22T05:06:09;101678.00;;;9.38;60.60
44044;BME280;29709;52.396;16.796;2023-04-22T05:09:22;101676.93;;;9.60;59.53
44044;BME280;29709;52.396;16.796;2023-04-22T05:12:36;101671.91;;;9.84;60.12
44044;BME280;29709;52.396;16.796;2023-04-22T05:15:49;101676.71;;;10.01;59.10
44044;BME280;29709;52.396;16.796;2023-04-22T05:19:02;101676.84;;;10.19;59.51
44044;BME280;29709;52.396;16.796;2023-04-22T05:22:15;101671.53;;;10.37;59.31
44044;BME280;29709;52.396;16.796;2023-04-22T05:25:30;101674.41;;;10.55;58.33
44044;BME280;29709;52.396;16.796;2023-04-22T05:28:43;101681.00;;;10.81;58.50
44044;BME280;29709;52.396;16.796;2023-04-22T05:31:56;101673.41;;;11.03;58.07
44044;BME280;29709;52.396;16.796;2023-04-22T05:35:09;101676.66;;;11.53;57.53
44044;BME280;29709;52.396;16.796;2023-04-22T05:38:23;101675.62;;;12.09;56.51
44044;BME280;29709;52.396;16.796;2023-04-22T05:41:36;101670.93;;;12.63;55.55
44044;BME280;29709;52.396;16.796;2023-04-22T05:44:49;101670.77;;;13.16;54.50
44044;BME280;29709;52.396;16.796;2023-04-22T05:48:03;101665.78;;;13.54;53.61
44044;BME280;29709;52.396;16.796;2023-04-22T05:51:16;101672.95;;;13.81;52.69
44044;BME280;29709;52.396;16.796;2023-04-22T05:54:29;101677.16;;;14.01;52.19
44044;BME280;29709;52.396;16.796;2023-04-22T05:57:42;101679.48;;;14.38;51.09
44044;BME280;29709;52.396;16.796;2023-04-22T06:00:55;101681.05;;;14.65;51.19
44044;BME280;29709;52.396;16.796;2023-04-22T06:04:09;101677.56;;;14.80;50.03
44044;BME280;29709;52.396;16.796;2023-04-22T06:07:24;101687.41;;;14.98;49.74
44044;BME280;29709;52.396;16.796;2023-04-22T06:10:38;101692.05;;;15.22;48.76
44044;BME280;29709;52.396;16.796;2023-04-22T06:13:51;101680.53;;;15.42;49.47
44044;BME280;29709;52.396;16.796;2023-04-22T06:17:04;101685.17;;;15.57;48.58
44044;BME280;29709;52.396;16.796;2023-04-22T06:20:18;101679.92;;;15.71;48.01
44044;BME280;29709;52.396;16.796;2023-04-22T06:23:31;101673.41;;;15.95;48.48
44044;BME280;29709;52.396;16.796;2023-04-22T06:26:44;101667.37;;;16.14;47.90
44044;BME280;29709;52.396;16.796;2023-04-22T06:29:57;101666.45;;;16.22;46.99
44044;BME280;29709;52.396;16.796;2023-04-22T06:33:11;101662.81;;;16.44;47.07
44044;BME280;29709;52.396;16.796;2023-04-22T06:36:25;101668.43;;;16.59;46.06
44044;BME280;29709;52.396;16.796;2023-04-22T06:39:39;101668.02;;;16.70;45.91
44044;BME280;29709;52.396;16.796;2023-04-22T06:42:52;101667.10;;;16.92;45.06
44044;BME280;29709;52.396;16.796;2023-04-22T06:46:05;101660.89;;;17.05;44.80
44044;BME280;29709;52.396;16.796;2023-04-22T06:49:19;101661.09;;;17.03;45.48
44044;BME280;29709;52.396;16.796;2023-04-22T06:52:32;101664.91;;;17.17;44.14
44044;BME280;29709;52.396;16.796;2023-04-22T06:55:45;101663.70;;;17.20;43.82
44044;BME280;29709;52.396;16.796;2023-04-22T06:58:58;101664.27;;;17.30;43.75
44044;BME280;29709;52.396;16.796;2023-04-22T07:02:11;101658.80;;;17.51;44.01
44044;BME280;29709;52.396;16.796;2023-04-22T07:05:24;101663.87;;;17.48;43.77
44044;BME280;29709;52.396;16.796;2023-04-22T07:08:40;101659.84;;;17.65;43.28
44044;BME280;29709;52.396;16.796;2023-04-22T07:11:53;101654.57;;;17.70;43.79
44044;BME280;29709;52.396;16.796;2023-04-22T07:15:07;101652.04;;;17.90;43.43
44044;BME280;29709;52.396;16.796;2023-04-22T07:18:20;101654.25;;;17.95;41.98
44044;BME280;29709;52.396;16.796;2023-04-22T07:21:33;101646.65;;;18.03;42.43
44044;BME280;29709;52.396;16.796;2023-04-22T07:24:47;101647.73;;;18.24;42.34
44044;BME280;29709;52.396;16.796;2023-04-22T07:28:00;101646.34;;;18.34;43.17
44044;BME280;29709;52.396;16.796;2023-04-22T07:31:13;101653.79;;;18.34;42.16
44044;BME280;29709;52.396;16.796;2023-04-22T07:34:26;101649.03;;;18.49;42.11
44044;BME280;29709;52.396;16.796;2023-04-22T07:37:40;101651.69;;;18.79;41.83
44044;BME280;29709;52.396;16.796;2023-04-22T07:44:18;101645.80;;;18.67;41.10
44044;BME280;29709;52.396;16.796;2023-04-22T07:47:33;101646.91;;;18.72;40.93
44044;BME280;29709;52.396;16.796;2023-04-22T07:50:46;101645.30;;;18.85;40.80
44044;BME280;29709;52.396;16.796;2023-04-22T07:53:59;101646.27;;;18.98;41.15
44044;BME280;29709;52.396;16.796;2023-04-22T07:57:13;101645.71;;;19.10;40.20
44044;BME280;29709;52.396;16.796;2023-04-22T08:00:26;101644.12;;;19.28;40.06
44044;BME280;29709;52.396;16.796;2023-04-22T08:03:40;101641.20;;;19.43;40.03
44044;BME280;29709;52.396;16.796;2023-04-22T08:06:53;101646.13;;;19.48;39.32
44044;BME280;29709;52.396;16.796;2023-04-22T08:10:08;101642.35;;;19.55;38.53
44044;BME280;29709;52.396;16.796;2023-04-22T08:13:21;101638.23;;;19.51;38.63
44044;BME280;29709;52.396;16.796;2023-04-22T08:16:34;101633.38;;;19.60;38.77
44044;BME280;29709;52.396;16.796;2023-04-22T08:19:48;101633.18;;;19.68;39.20
44044;BME280;29709;52.396;16.796;2023-04-22T08:25:30;101632.05;;;20.17;38.71
44044;BME280;29709;52.396;16.796;2023-04-22T08:28:43;101627.60;;;20.42;38.49
44044;BME280;29709;52.396;16.796;2023-04-22T08:31:56;101627.00;;;20.54;38.64
44044;BME280;29709;52.396;16.796;2023-04-22T08:35:09;101621.61;;;20.72;37.60
44044;BME280;29709;52.396;16.796;2023-04-22T08:38:23;101621.84;;;20.77;34.33
44044;BME280;29709;52.396;16.796;2023-04-22T08:41:37;101616.23;;;20.90;36.84
44044;BME280;29709;52.396;16.796;2023-04-22T08:44:52;101611.24;;;21.12;37.00
44044;BME280;29709;52.396;16.796;2023-04-22T08:48:09;101610.14;;;21.33;35.92
44044;BME280;29709;52.396;16.796;2023-04-22T08:51:24;101617.85;;;21.44;35.09
44044;BME280;29709;52.396;16.796;2023-04-22T08:54:38;101613.80;;;21.33;33.94
44044;BME280;29709;52.396;16.796;2023-04-22T08:57:52;101610.38;;;21.31;35.01
44044;BME280;29709;52.396;16.796;2023-04-22T09:01:07;101612.95;;;21.33;34.45
44044;BME280;29709;52.396;16.796;2023-04-22T09:04:20;101609.06;;;21.34;33.72
44044;BME280;29709;52.396;16.796;2023-04-22T09:07:34;101612.70;;;21.48;33.01
44044;BME280;29709;52.396;16.796;2023-04-22T09:10:49;101611.33;;;21.64;34.58
44044;BME280;29709;52.396;16.796;2023-04-22T09:14:03;101608.77;;;21.55;33.70
44044;BME280;29709;52.396;16.796;2023-04-22T09:20:41;101608.20;;;21.40;32.95
44044;BME280;29709;52.396;16.796;2023-04-22T09:23:55;101608.61;;;21.44;32.32
44044;BME280;29709;52.396;16.796;2023-04-22T09:27:09;101605.17;;;21.48;32.84
44044;BME280;29709;52.396;16.796;2023-04-22T09:30:28;101596.78;;;21.48;32.49
44044;BME280;29709;52.396;16.796;2023-04-22T09:33:49;101588.10;;;21.56;32.85
44044;BME280;29709;52.396;16.796;2023-04-22T09:37:04;101595.33;;;21.77;31.74
44044;BME280;29709;52.396;16.796;2023-04-22T09:40:21;101595.15;;;21.72;31.13
44044;BME280;29709;52.396;16.796;2023-04-22T09:43:36;101589.68;;;21.90;32.01
44044;BME280;29709;52.396;16.796;2023-04-22T09:46:50;101585.54;;;22.00;30.52
44044;BME280;29709;52.396;16.796;2023-04-22T09:50:03;101582.27;;;22.09;29.91
44044;BME280;29709;52.396;16.796;2023-04-22T09:53:18;101583.33;;;22.08;29.66
44044;BME280;29709;52.396;16.796;2023-04-22T09:56:38;101578.16;;;22.12;30.17
44044;BME280;29709;52.396;16.796;2023-04-22T09:59:52;101575.37;;;22.12;28.36
44044;BME280;29709;52.396;16.796;2023-04-22T10:03:07;101565.11;;;21.93;29.29
44044;BME280;29709;52.396;16.796;2023-04-22T10:06:21;101572.92;;;22.22;30.99
44044;BME280;29709;52.396;16.796;2023-04-22T10:09:34;101563.44;;;22.23;29.82
44044;BME280;29709;52.396;16.796;2023-04-22T10:12:47;101556.98;;;22.23;28.95
44044;BME280;29709;52.396;16.796;2023-04-22T10:16:01;101560.17;;;22.26;29.02
44044;BME280;29709;52.396;16.796;2023-04-22T10:19:21;101560.79;;;22.28;27.68
44044;BME280;29709;52.396;16.796;2023-04-22T10:22:35;101548.31;;;22.31;28.29
44044;BME280;29709;52.396;16.796;2023-04-22T10:25:54;101560.48;;;22.43;28.02
44044;BME280;29709;52.396;16.796;2023-04-22T10:29:12;101566.00;;;22.25;28.29
44044;BME280;29709;52.396;16.796;2023-04-22T10:32:28;101559.90;;;22.34;27.93
44044;BME280;29709;52.396;16.796;2023-04-22T10:39:16;101549.30;;;22.61;28.44
44044;BME280;29709;52.396;16.796;2023-04-22T10:42:29;101552.91;;;22.68;27.95
44044;BME280;29709;52.396;16.796;2023-04-22T10:45:43;101557.42;;;22.69;27.67
44044;BME280;29709;52.396;16.796;2023-04-22T10:48:56;101536.80;;;22.39;27.49
44044;BME280;29709;52.396;16.796;2023-04-22T10:52:26;101545.90;;;22.34;26.93
44044;BME280;29709;52.396;16.796;2023-04-22T10:58:58;101533.36;;;22.87;27.74
44044;BME280;29709;52.396;16.796;2023-04-22T11:02:16;101526.60;;;22.94;26.89
44044;BME280;29709;52.396;16.796;2023-04-22T11:05:30;101524.48;;;22.90;26.71
44044;BME280;29709;52.396;16.796;2023-04-22T11:08:46;101520.76;;;22.96;27.99
44044;BME280;29709;52.396;16.796;2023-04-22T11:15:28;101512.34;;;22.96;27.48
44044;BME280;29709;52.396;16.796;2023-04-22T11:18:45;101503.16;;;23.07;28.32
44044;BME280;29709;52.396;16.796;2023-04-22T11:21:59;101488.28;;;23.25;28.18
44044;BME280;29709;52.396;16.796;2023-04-22T11:25:13;101490.05;;;23.38;26.49
44044;BME280;29709;52.396;16.796;2023-04-22T11:28:26;101492.31;;;23.29;26.87
44044;BME280;29709;52.396;16.796;2023-04-22T11:31:45;101486.99;;;23.39;28.29
44044;BME280;29709;52.396;16.796;2023-04-22T11:35:04;101480.78;;;23.37;27.46
44044;BME280;29709;52.396;16.796;2023-04-22T11:38:18;101482.20;;;23.10;27.33
44044;BME280;29709;52.396;16.796;2023-04-22T11:41:32;101474.82;;;23.15;27.09
44044;BME280;29709;52.396;16.796;2023-04-22T11:44:45;101469.27;;;23.27;28.18
44044;BME280;29709;52.396;16.796;2023-04-22T11:47:59;101467.56;;;23.56;27.90
44044;BME280;29709;52.396;16.796;2023-04-22T11:51:12;101460.68;;;23.70;28.28
44044;BME280;29709;52.396;16.796;2023-04-22T11:54:35;101462.54;;;23.76;26.39
44044;BME280;29709;52.396;16.796;2023-04-22T11:57:55;101451.75;;;23.43;27.03
44044;BME280;29709;52.396;16.796;2023-04-22T12:01:12;101443.34;;;23.43;27.01
44044;BME280;29709;52.396;16.796;2023-04-22T12:04:26;101444.57;;;23.66;27.43
44044;BME280;29709;52.396;16.796;2023-04-22T12:07:41;101450.68;;;23.74;26.85
44044;BME280;29709;52.396;16.796;2023-04-22T12:10:57;101453.03;;;23.77;27.44
44044;BME280;29709;52.396;16.796;2023-04-22T12:14:11;101446.65;;;23.70;26.64
44044;BME280;29709;52.396;16.796;2023-04-22T12:17:24;101449.41;;;23.58;26.96
44044;BME280;29709;52.396;16.796;2023-04-22T12:20:39;101442.47;;;23.61;27.95
44044;BME280;29709;52.396;16.796;2023-04-22T12:23:54;101439.66;;;23.61;27.89
44044;BME280;29709;52.396;16.796;2023-04-22T12:27:08;101434.47;;;23.46;25.12
44044;BME280;29709;52.396;16.796;2023-04-22T12:30:22;101443.01;;;23.51;26.37
44044;BME280;29709;52.396;16.796;2023-04-22T12:33:37;101426.27;;;23.75;27.39
44044;BME280;29709;52.396;16.796;2023-04-22T12:36:51;101433.59;;;23.76;26.68
44044;BME280;29709;52.396;16.796;2023-04-22T12:40:04;101429.47;;;23.78;27.09
44044;BME280;29709;52.396;16.796;2023-04-22T12:43:18;101422.34;;;23.64;26.06
44044;BME280;29709;52.396;16.796;2023-04-22T12:46:31;101410.64;;;23.37;26.53
44044;BME280;29709;52.396;16.796;2023-04-22T12:49:45;101418.49;;;23.47;27.29
44044;BME280;29709;52.396;16.796;2023-04-22T12:52:59;101399.77;;;23.59;27.34
44044;BME280;29709;52.396;16.796;2023-04-22T12:56:12;101416.74;;;23.76;27.32
44044;BME280;29709;52.396;16.796;2023-04-22T12:59:25;101404.67;;;23.75;27.55
44044;BME280;29709;52.396;16.796;2023-04-22T13:02:42;101405.91;;;23.79;27.33
44044;BME280;29709;52.396;16.796;2023-04-22T13:05:56;101403.63;;;23.58;27.04
44044;BME280;29709;52.396;16.796;2023-04-22T13:09:13;101393.52;;;23.57;26.99
44044;BME280;29709;52.396;16.796;2023-04-22T13:12:26;101391.16;;;23.54;27.51
44044;BME280;29709;52.396;16.796;2023-04-22T13:15:39;101384.16;;;23.75;27.65
44044;BME280;29709;52.396;16.796;2023-04-22T13:18:52;101370.27;;;23.80;27.55
44044;BME280;29709;52.396;16.796;2023-04-22T13:22:06;101380.88;;;23.66;26.27
44044;BME280;29709;52.396;16.796;2023-04-22T13:25:19;101374.62;;;23.64;26.74
44044;BME280;29709;52.396;16.796;2023-04-22T13:28:32;101375.02;;;23.68;26.72
44044;BME280;29709;52.396;16.796;2023-04-22T13:31:46;101374.43;;;23.77;27.24
44044;BME280;29709;52.396;16.796;2023-04-22T13:34:59;101373.09;;;23.80;25.80
44044;BME280;29709;52.396;16.796;2023-04-22T13:38:12;101373.66;;;23.58;26.19
44044;BME280;29709;52.396;16.796;2023-04-22T13:41:25;101370.40;;;23.43;26.54
44044;BME280;29709;52.396;16.796;2023-04-22T13:44:38;101370.27;;;23.38;26.49
44044;BME280;29709;52.396;16.796;2023-04-22T13:47:52;101360.85;;;23.32;26.88
44044;BME280;29709;52.396;16.796;2023-04-22T13:51:06;101363.69;;;23.44;25.83
44044;BME280;29709;52.396;16.796;2023-04-22T13:54:19;101354.81;;;23.47;26.55
44044;BME280;29709;52.396;16.796;2023-04-22T13:57:32;101351.81;;;23.60;25.89
44044;BME280;29709;52.396;16.796;2023-04-22T14:00:45;101348.69;;;23.39;25.37
44044;BME280;29709;52.396;16.796;2023-04-22T14:03:59;101351.30;;;23.22;25.66
44044;BME280;29709;52.396;16.796;2023-04-22T14:07:12;101346.55;;;23.22;25.74
44044;BME280;29709;52.396;16.796;2023-04-22T14:10:26;101346.80;;;23.21;25.09
44044;BME280;29709;52.396;16.796;2023-04-22T14:13:39;101337.69;;;23.25;25.72
44044;BME280;29709;52.396;16.796;2023-04-22T14:16:53;101331.68;;;23.22;25.33
44044;BME280;29709;52.396;16.796;2023-04-22T14:20:07;101327.41;;;23.19;25.64
44044;BME280;29709;52.396;16.796;2023-04-22T14:23:22;101321.84;;;23.31;26.48
44044;BME280;29709;52.396;16.796;2023-04-22T14:26:36;101328.42;;;23.25;25.93
44044;BME280;29709;52.396;16.796;2023-04-22T14:29:49;101331.16;;;23.13;25.10
44044;BME280;29709;52.396;16.796;2023-04-22T14:33:06;101326.48;;;22.95;25.52
44044;BME280;29709;52.396;16.796;2023-04-22T14:36:19;101325.05;;;23.04;25.42
44044;BME280;29709;52.396;16.796;2023-04-22T14:39:32;101320.55;;;23.03;25.82
44044;BME280;29709;52.396;16.796;2023-04-22T14:42:45;101320.67;;;23.09;26.62
44044;BME280;29709;52.396;16.796;2023-04-22T14:45:59;101314.79;;;22.98;26.20
44044;BME280;29709;52.396;16.796;2023-04-22T14:49:15;101310.23;;;22.86;26.29
44044;BME280;29709;52.396;16.796;2023-04-22T14:52:30;101308.52;;;22.85;26.00
44044;BME280;29709;52.396;16.796;2023-04-22T14:55:43;101311.70;;;22.88;26.63
44044;BME280;29709;52.396;16.796;2023-04-22T14:58:56;101310.03;;;22.99;27.07
44044;BME280;29709;52.396;16.796;2023-04-22T15:02:12;101321.11;;;22.94;26.59
44044;BME280;29709;52.396;16.796;2023-04-22T15:05:29;101298.83;;;22.81;26.95
44044;BME280;29709;52.396;16.796;2023-04-22T15:08:42;101305.40;;;22.74;26.72
44044;BME280;29709;52.396;16.796;2023-04-22T15:11:55;101311.93;;;22.68;27.04
44044;BME280;29709;52.396;16.796;2023-04-22T15:15:11;101306.57;;;22.67;26.74
44044;BME280;29709;52.396;16.796;2023-04-22T15:18:29;101303.95;;;22.54;26.74
44044;BME280;29709;52.396;16.796;2023-04-22T15:21:42;101292.59;;;22.48;27.79
44044;BME280;29709;52.396;16.796;2023-04-22T15:24:55;101294.70;;;22.53;28.36
44044;BME280;29709;52.396;16.796;2023-04-22T15:28:09;101290.87;;;22.47;27.82
44044;BME280;29709;52.396;16.796;2023-04-22T15:31:22;101284.98;;;22.37;27.91
44044;BME280;29709;52.396;16.796;2023-04-22T15:34:35;101298.23;;;22.30;28.16
44044;BME280;29709;52.396;16.796;2023-04-22T15:37:48;101297.81;;;22.27;27.62
44044;BME280;29709;52.396;16.796;2023-04-22T15:41:03;101297.34;;;22.30;28.58
44044;BME280;29709;52.396;16.796;2023-04-22T15:44:16;101293.06;;;22.27;28.35
44044;BME280;29709;52.396;16.796;2023-04-22T15:47:30;101289.17;;;22.28;28.09
44044;BME280;29709;52.396;16.796;2023-04-22T15:50:43;101283.33;;;22.30;28.54
44044;BME280;29709;52.396;16.796;2023-04-22T15:53:57;101287.63;;;22.32;28.51
44044;BME280;29709;52.396;16.796;2023-04-22T15:57:10;101289.89;;;22.24;27.95
44044;BME280;29709;52.396;16.796;2023-04-22T16:00:23;101283.50;;;22.16;28.17
44044;BME280;29709;52.396;16.796;2023-04-22T16:03:38;101278.38;;;22.13;28.53
44044;BME280;29709;52.396;16.796;2023-04-22T16:06:51;101273.77;;;22.19;28.48
44044;BME280;29709;52.396;16.796;2023-04-22T16:10:06;101276.91;;;22.11;29.06
44044;BME280;29709;52.396;16.796;2023-04-22T16:13:19;101271.11;;;22.06;28.91
44044;BME280;29709;52.396;16.796;2023-04-22T16:16:33;101274.13;;;22.04;28.64
44044;BME280;29709;52.396;16.796;2023-04-22T16:19:46;101267.51;;;21.99;28.17
44044;BME280;29709;52.396;16.796;2023-04-22T16:22:59;101268.77;;;22.03;28.34
44044;BME280;29709;52.396;16.796;2023-04-22T16:26:12;101266.04;;;21.96;28.94
44044;BME280;29709;52.396;16.796;2023-04-22T16:29:26;101263.55;;;21.88;29.40
44044;BME280;29709;52.396;16.796;2023-04-22T16:32:39;101255.23;;;21.81;29.07
44044;BME280;29709;52.396;16.796;2023-04-22T16:35:52;101258.66;;;21.83;29.24
44044;BME280;29709;52.396;16.796;2023-04-22T16:39:05;101255.38;;;21.86;29.52
44044;BME280;29709;52.396;16.796;2023-04-22T16:42:18;101251.12;;;21.84;29.18
44044;BME280;29709;52.396;16.796;2023-04-22T16:45:32;101244.72;;;21.77;29.36
44044;BME280;29709;52.396;16.796;2023-04-22T16:48:45;101248.70;;;21.69;29.87
44044;BME280;29709;52.396;16.796;2023-04-22T16:51:58;101243.40;;;21.61;29.74
44044;BME280;29709;52.396;16.796;2023-04-22T16:55:11;101233.73;;;21.57;30.27
44044;BME280;29709;52.396;16.796;2023-04-22T16:58:25;101236.15;;;21.53;29.89
44044;BME280;29709;52.396;16.796;2023-04-22T17:01:39;101245.86;;;21.51;30.33
44044;BME280;29709;52.396;16.796;2023-04-22T17:04:52;101244.21;;;21.43;30.35